Skip Navigation Links Skip Navigation Links

Current Weather

San Antonio Intl, San Antonio, Tex.

For information only: do not use for flight planning or navigation.
Latest weather
Observation time Tuesday, September 28, 2021 4:51 AM CDT
Local time Tuesday, September 28, 2021 5:10 AM CDT
Flight conditions Marginal Visual Meteorological Conditions
Winds
Wind direction South (170°)
Wind speed 5 mph
Visibility 10 mi.
Sky condition
Ceiling 1,400 ft. overcast
Cloud layer overcast 1,400 ft.
Temperature 77°F
Dewpoint 73°F
Altimeter 29.92 in.Hg
Derived measurements
Relative humidity 88%
Heat index 77°F
Density altitude 2341 ft.
Sea-level pressure 29.86 in.Hg
Remarks
Automated weather observing station with precipitation discriminator.
METAR KSAT 280951Z 17004KT 10SM OVC014 25/23 A2992 RMK AO2 SLP111 T02500228

Settings

Location code

InnerDrive.Weather 4.0.6770.0 Release CLR 4.0.30319.42000
Copyright ©2018 Inner Drive Technology. All rights reserved. Portions Copyright ©1986-2018 David Braverman.

Find weather

Site navigation


Skip Navigation Links

Place info

Page info

PayPal - The safer, easier way to pay online!

Return home.

Copyright ©2021 Inner Drive Technology. Purveyors of fine, hand-crafted computer software. Page printed 2021-09-28T10:10:58 UTC.